Time;durP1;ratioP1;P1;durP2;ratioP2;P2;SDS_P1;SDS_P2;PMS_P1;PMS_P2;Temp;Humidity;BMP_temperature;BMP_pressure;BME280_temperature;BME280_humidity;BME280_pressure;Samples;Min_cycle;Max_cycle;Signal;HPM_P1;HPM_P2
2022/04/06 00:01:50;;;;;;;10.27;7.55;;;;;;;2.41;70.48;97821.47;4983281;28;20479;-85
2022/04/06 00:04:17;;;;;;;10.48;7.32;;;;;;;2.39;70.64;97831.72;4977353;28;20353;-84
2022/04/06 00:06:46;;;;;;;12.45;8.55;;;;;;;2.03;70.26;97764.41;4969054;28;20109;-85
2022/04/06 00:09:12;;;;;;;11.23;7.55;;;;;;;2.03;70.29;97772.09;4949867;28;20069;-86
2022/04/06 00:11:42;;;;;;;11.02;7.53;;;;;;;1.95;70.77;97754.19;4962382;28;20061;-87
2022/04/06 00:14:09;;;;;;;12.18;7.95;;;;;;;1.92;70.45;97743.09;4975819;28;20506;-84
2022/04/06 00:16:37;;;;;;;11.93;7.50;;;;;;;2.44;70.68;97838.53;4951580;28;20038;-86
2022/04/06 00:19:26;;;;;;;11.15;7.43;;;;;;;1.58;70.81;97685.19;4990446;28;20094;-85
2022/04/06 00:21:53;;;;;;;11.60;7.60;;;;;;;2.29;70.45;97814.69;4971825;28;20133;-85
2022/04/06 00:24:20;;;;;;;11.57;7.72;;;;;;;2.03;70.20;97772.09;4941767;28;20136;-87
2022/04/06 00:26:46;;;;;;;11.60;8.02;;;;;;;2.46;71.06;97850.50;4989853;28;20090;-87
2022/04/06 00:29:13;;;;;;;11.57;7.97;;;;;;;1.61;70.49;97712.53;4982104;28;20042;-87
2022/04/06 00:31:39;;;;;;;10.70;7.53;;;;;;;2.41;71.17;97853.09;4998331;28;20046;-86
2022/04/06 00:34:12;;;;;;;12.13;8.15;;;;;;;1.67;71.08;97709.91;4965052;28;20117;-85
2022/04/06 00:36:41;;;;;;;11.38;7.97;;;;;;;1.68;70.65;97719.31;4977230;28;20050;-85
2022/04/06 00:39:07;;;;;;;11.70;7.50;;;;;;;1.78;70.95;97744.03;5006306;28;20014;-86
2022/04/06 00:41:34;;;;;;;11.52;7.40;;;;;;;1.88;70.97;97760.22;4996370;28;20057;-85
2022/04/06 00:44:15;;;;;;;12.25;7.78;;;;;;;2.02;71.23;97785.78;4997022;28;20030;-85
2022/04/06 00:46:43;;;;;;;9.90;7.00;;;;;;;1.68;71.05;97741.53;4996157;28;20091;-85
2022/04/06 00:49:14;;;;;;;11.27;6.97;;;;;;;2.12;71.56;97807.09;4994646;28;20042;-84
2022/04/06 00:51:42;;;;;;;11.60;6.97;;;;;;;1.87;71.47;97780.78;4984610;28;20573;-86
2022/04/06 00:54:09;;;;;;;11.27;7.55;;;;;;;2.16;71.26;97831.88;4978798;28;20066;-86
2022/04/06 00:56:35;;;;;;;9.85;6.65;;;;;;;2.17;71.60;97838.72;4984879;28;20717;-84
2022/04/06 00:59:02;;;;;;;9.55;6.72;;;;;;;1.80;71.31;97791.06;4960024;28;20039;-85
2022/04/06 01:01:29;;;;;;;9.13;6.63;;;;;;;2.24;71.24;97854.94;4997732;28;20109;-84
2022/04/06 01:03:55;;;;;;;10.50;7.07;;;;;;;1.79;71.32;97796.19;4966821;28;20042;-85
2022/04/06 01:06:21;;;;;;;10.32;6.63;;;;;;;2.19;71.77;97870.38;4974648;28;20073;-84
2022/04/06 01:09:05;;;;;;;11.15;7.38;;;;;;;1.72;71.44;97795.38;4970791;28;20061;-85
2022/04/06 01:11:49;;;;;;;10.10;7.03;;;;;;;2.05;71.47;97828.53;4991328;28;20054;-82
2022/04/06 01:14:15;;;;;;;;;;;;;;;2.37;72.13;97868.53;5000781;28;20038;-83
2022/04/06 01:16:56;;;;;;;10.07;6.13;;;;;;;2.23;71.47;97840.41;5012987;28;19913;-84
2022/04/06 01:19:25;;;;;;;10.50;6.60;;;;;;;2.20;71.21;97851.56;5012766;28;20082;-85
2022/04/06 01:21:51;;;;;;;9.90;6.40;;;;;;;1.63;71.31;97754.41;4955532;28;20096;-83
2022/04/06 01:24:19;;;;;;;10.75;6.85;;;;;;;1.80;71.21;97774.81;4963225;28;20042;-85
2022/04/06 01:26:48;;;;;;;9.43;6.78;;;;;;;2.27;71.45;97844.66;4993849;28;20050;-84
2022/04/06 01:29:15;;;;;;;9.30;6.35;;;;;;;2.20;71.54;97830.16;4980417;28;20073;-84
2022/04/06 01:31:41;;;;;;;9.43;7.03;;;;;;;1.86;71.45;97797.84;4974996;28;20387;-85
2022/04/06 01:34:07;;;;;;;10.32;6.65;;;;;;;2.03;71.37;97797.75;4972717;28;20038;-86
2022/04/06 01:36:33;;;;;;;10.90;7.30;;;;;;;2.41;71.42;97865.94;4975508;28;20128;-83
2022/04/06 01:38:59;;;;;;;8.25;6.15;;;;;;;2.19;71.65;97826.75;4984004;28;20050;-83
2022/04/06 01:41:34;;;;;;;9.70;6.93;;;;;;;2.34;71.13;97845.47;4947022;28;20326;-83
2022/04/06 01:44:01;;;;;;;10.60;6.60;;;;;;;2.61;71.12;97877.78;4983006;28;20049;-84
2022/04/06 01:46:27;;;;;;;8.60;6.15;;;;;;;2.16;71.05;97805.34;5002259;28;20553;-82
2022/04/06 01:54:39;;;;;;;;;;;;;;;;;;;;;
2022/04/06 01:57:14;;;;;;;9.30;6.05;;;;;;;2.58;71.63;97869.25;4981422;28;20018;-85
2022/04/06 01:59:41;;;;;;;9.02;6.07;;;;;;;2.66;71.02;97903.41;5005015;28;20046;-84
2022/04/06 02:02:08;;;;;;;9.63;6.20;;;;;;;2.36;71.05;97846.31;4970865;28;20517;-82
2022/04/06 02:04:36;;;;;;;8.95;6.47;;;;;;;2.51;70.88;97869.28;4982035;28;20064;-84
2022/04/06 02:07:02;;;;;;;9.73;6.22;;;;;;;2.49;71.28;97871.00;4951290;28;20077;-85
2022/04/06 02:09:28;;;;;;;11.00;6.63;;;;;;;2.21;70.90;97827.56;4990377;28;20083;-85
2022/04/06 02:11:55;;;;;;;9.68;6.90;;;;;;;2.21;70.96;97853.22;4971241;28;20062;-84
2022/04/06 02:14:25;;;;;;;8.70;5.95;;;;;;;2.51;70.71;97909.53;4974303;28;20046;-85
2022/04/06 02:16:52;;;;;;;10.20;6.80;;;;;;;2.48;70.68;97910.38;4977512;28;20042;-83
2022/04/06 02:19:18;;;;;;;9.85;6.15;;;;;;;1.68;70.99;97793.66;4964646;28;20049;-77
2022/04/06 02:21:44;;;;;;;10.20;6.40;;;;;;;2.45;71.19;97924.97;4956158;28;20073;-80
2022/04/06 02:24:11;;;;;;;8.95;6.22;;;;;;;2.06;71.31;97854.19;4990376;28;20211;-84
2022/04/06 02:26:37;;;;;;;8.02;5.88;;;;;;;2.48;70.88;97919.81;4985392;28;20116;-85
2022/04/06 02:29:03;;;;;;;7.78;5.45;;;;;;;2.10;70.78;97863.56;4991856;28;20113;-84
2022/04/06 02:31:29;;;;;;;8.00;5.70;;;;;;;1.86;70.26;97843.19;4929552;28;20046;-85
2022/04/06 02:33:55;;;;;;;9.70;6.07;;;;;;;2.39;71.25;97923.31;4976110;28;20137;-86
2022/04/06 02:36:21;;;;;;;9.05;6.10;;;;;;;2.42;70.22;97941.25;4975838;28;20042;-86
2022/04/06 02:38:48;;;;;;;6.07;4.53;;;;;;;2.34;70.63;97941.28;4959640;28;20045;-85
2022/04/06 02:41:14;;;;;;;5.20;3.70;;;;;;;1.88;70.54;97890.19;4986826;28;20026;-85
2022/04/06 02:43:40;;;;;;;5.03;3.40;;;;;;;1.85;70.39;97897.91;4997744;28;20058;-84
2022/04/06 02:46:06;;;;;;;6.05;3.33;;;;;;;2.00;70.16;97931.19;4956933;28;20042;-84
2022/04/06 02:48:32;;;;;;;5.95;3.50;;;;;;;2.15;70.80;97960.19;4974249;28;20506;-88
2022/04/06 02:50:58;;;;;;;7.03;3.50;;;;;;;1.46;70.27;97857.03;4977138;28;20046;-87
2022/04/06 02:53:25;;;;;;;10.02;3.90;;;;;;;1.98;70.08;97950.88;4974686;28;20054;-83
2022/04/06 02:55:51;;;;;;;9.30;3.72;;;;;;;1.85;70.06;97939.78;4945685;28;20550;-83
2022/04/06 02:58:17;;;;;;;5.35;2.90;;;;;;;1.92;70.10;97966.28;4947525;28;20035;-86
2022/04/06 03:00:43;;;;;;;5.85;3.40;;;;;;;1.68;69.73;97931.31;4985429;28;20045;-83
2022/04/06 03:03:09;;;;;;;5.40;3.33;;;;;;;1.66;69.96;97944.13;4974281;28;20125;-83
2022/04/06 03:05:35;;;;;;;5.97;3.08;;;;;;;1.91;69.98;98000.47;4955731;28;20038;-83
2022/04/06 03:08:01;;;;;;;7.70;3.90;;;;;;;1.68;69.58;97962.06;4975069;28;20474;-83
2022/04/06 03:10:27;;;;;;;6.05;3.30;;;;;;;1.76;70.10;97970.63;4994249;28;20042;-85
2022/04/06 03:12:53;;;;;;;6.82;3.40;;;;;;;1.61;70.06;97949.25;4974831;28;20129;-83
2022/04/06 03:15:20;;;;;;;7.28;4.00;;;;;;;2.02;69.17;98018.41;4940744;28;20129;-81
2022/04/06 03:17:46;;;;;;;4.75;3.03;;;;;;;2.07;69.45;98017.56;4972817;28;20047;-82
2022/04/06 03:20:15;;;;;;;5.05;3.58;;;;;;;2.13;69.34;98020.94;4955352;28;20070;-82
2022/04/06 03:22:42;;;;;;;5.40;3.00;;;;;;;1.94;68.73;97988.50;4973804;28;20034;-81
2022/04/06 03:25:09;;;;;;;4.03;2.00;;;;;;;1.92;68.84;97981.66;4977360;28;21773;-81
2022/04/06 03:27:36;;;;;;;3.00;2.10;;;;;;;2.08;69.10;98005.56;4961277;28;20506;-82
2022/04/06 03:30:06;;;;;;;2.80;1.77;;;;;;;2.14;68.20;98004.69;4955227;28;20090;-82
2022/04/06 03:32:33;;;;;;;2.47;1.98;;;;;;;2.39;68.42;98055.06;4972881;28;20133;-82
2022/04/06 03:34:59;;;;;;;3.97;2.30;;;;;;;2.22;68.20;98029.47;4954066;28;20038;-84
2022/04/06 03:37:25;;;;;;;3.35;1.67;;;;;;;2.40;68.20;98064.50;4953699;28;20039;-83
2022/04/06 03:39:51;;;;;;;4.32;2.05;;;;;;;2.03;67.96;97999.59;4940007;29;20507;-81
2022/04/06 03:42:17;;;;;;;4.05;2.10;;;;;;;2.49;67.33;98071.28;4950344;28;20386;-84
2022/04/06 03:44:43;;;;;;;2.63;1.52;;;;;;;2.07;67.15;98002.16;4967910;28;20042;-81
2022/04/06 03:47:09;;;;;;;3.15;1.60;;;;;;;2.61;66.90;98084.97;4923835;28;20376;-82
2022/04/06 03:49:35;;;;;;;2.90;1.23;;;;;;;2.43;66.09;98062.78;4955121;28;20071;-83
2022/04/06 03:52:01;;;;;;;1.52;1.20;;;;;;;2.46;65.90;98073.88;4958386;28;20046;-82
2022/04/06 03:54:27;;;;;;;1.27;1.08;;;;;;;2.40;65.87;98069.63;4969011;28;20161;-82
2022/04/06 03:56:54;;;;;;;2.22;1.27;;;;;;;2.40;66.23;98061.91;4955440;28;20042;-81
2022/04/06 03:59:23;;;;;;;1.88;1.20;;;;;;;2.34;65.61;98020.03;4983399;28;20047;-83
2022/04/06 04:01:49;;;;;;;1.10;1.00;;;;;;;2.62;65.67;98050.72;4969688;28;20073;-82
2022/04/06 04:04:18;;;;;;;1.25;0.90;;;;;;;2.94;65.30;98058.25;4979575;28;20090;-81
2022/04/06 04:06:44;;;;;;;1.50;0.90;;;;;;;3.32;64.81;98110.25;4966726;28;20527;-82
2022/04/06 04:09:11;;;;;;;2.05;0.70;;;;;;;3.21;64.30;98097.47;4933552;28;20157;-83
2022/04/06 04:11:37;;;;;;;0.90;0.70;;;;;;;3.14;63.96;98070.13;4975429;28;20062;-83
2022/04/06 04:14:03;;;;;;;1.23;0.80;;;;;;;3.40;63.22;98112.81;4987567;28;20593;-81
2022/04/06 04:16:29;;;;;;;1.30;0.50;;;;;;;2.77;62.84;98003.53;4973217;28;20121;-82
2022/04/06 04:18:55;;;;;;;0.50;0.50;;;;;;;3.03;62.87;98047.06;4957032;28;20401;-81
2022/04/06 04:21:34;;;;;;;0.50;0.50;;;;;;;3.19;61.99;98072.66;4982194;28;20077;-81
2022/04/06 04:24:08;;;;;;;1.05;0.73;;;;;;;3.63;62.19;98140.91;4975648;28;20038;-81
2022/04/06 04:26:36;;;;;;;1.30;0.77;;;;;;;3.79;61.52;98140.78;4969722;28;20057;-81
2022/04/06 04:29:03;;;;;;;0.73;0.60;;;;;;;3.60;60.78;98089.50;5010343;28;20351;-82
2022/04/06 04:31:30;;;;;;;0.90;0.52;;;;;;;3.71;60.11;98099.69;4994371;28;20458;-82
2022/04/06 04:33:57;;;;;;;0.65;0.65;;;;;;;3.69;59.84;98085.97;4997203;28;20533;-81
2022/04/06 04:36:24;;;;;;;0.70;0.60;;;;;;;4.02;59.62;98144.03;4991971;28;20046;-82
2022/04/06 04:38:50;;;;;;;1.00;0.60;;;;;;;3.77;59.09;98113.34;4990023;28;20053;-82
2022/04/06 04:41:17;;;;;;;0.85;0.70;;;;;;;4.15;58.87;98164.53;4975160;28;20046;-79
2022/04/06 04:43:43;;;;;;;0.85;0.60;;;;;;;3.81;58.52;98106.47;4989402;28;20076;-82
2022/04/06 04:46:09;;;;;;;0.70;0.65;;;;;;;3.99;58.24;98110.59;4972159;28;20125;-82
2022/04/06 04:48:35;;;;;;;3.42;0.60;;;;;;;4.25;57.67;98139.56;4969885;28;20045;-83
2022/04/06 04:51:02;;;;;;;0.82;0.70;;;;;;;4.44;57.59;98120.47;4969432;28;20074;-82
2022/04/06 04:53:28;;;;;;;1.00;0.80;;;;;;;4.93;56.68;98154.25;4954248;28;20089;-82
2022/04/06 04:55:54;;;;;;;0.60;0.60;;;;;;;4.75;56.26;98096.88;4987756;28;20494;-81
2022/04/06 04:58:20;;;;;;;1.85;0.50;;;;;;;5.38;55.74;98193.22;4969307;28;20042;-81
2022/04/06 05:00:46;;;;;;;2.22;0.60;;;;;;;5.46;55.40;98187.97;4987520;28;20533;-83
2022/04/06 05:03:12;;;;;;;1.15;0.70;;;;;;;5.81;55.53;98184.00;4989614;28;20193;-83
2022/04/06 05:05:41;;;;;;;1.15;0.82;;;;;;;5.90;54.95;98105.53;4990774;28;20498;-82
2022/04/06 05:08:08;;;;;;;0.60;0.60;;;;;;;7.17;54.34;98112.63;4990629;28;20049;-81
2022/04/06 05:10:37;;;;;;;2.05;1.30;;;;;;;8.30;53.46;98112.47;4990960;28;20046;-83
2022/04/06 05:13:05;;;;;;;1.60;1.10;;;;;;;8.81;51.07;98110.28;4994362;28;20078;-83
2022/04/06 05:15:31;;;;;;;1.33;0.88;;;;;;;9.03;50.17;98194.38;4991280;28;20060;-82
2022/04/06 05:17:57;;;;;;;1.88;1.00;;;;;;;8.29;49.63;98163.47;4992169;28;20591;-82
2022/04/06 05:20:23;;;;;;;0.73;0.70;;;;;;;7.89;49.01;98198.13;4985585;28;20167;-83
2022/04/06 05:22:50;;;;;;;1.08;0.90;;;;;;;7.52;49.52;98215.34;4988357;28;20034;-84
2022/04/06 05:25:16;;;;;;;0.75;0.70;;;;;;;7.22;49.04;98233.22;4987904;28;20568;-81
2022/04/06 05:27:49;;;;;;;1.67;1.20;;;;;;;6.87;47.65;98233.91;4977676;28;20053;-82
2022/04/06 05:30:17;;;;;;;3.90;0.98;;;;;;;7.95;48.92;98236.00;4988876;28;20046;-83
2022/04/06 05:32:45;;;;;;;1.30;0.85;;;;;;;9.86;48.18;98225.72;4987144;28;20038;-81
2022/04/06 05:35:12;;;;;;;1.35;1.20;;;;;;;11.24;47.14;98227.19;4983081;28;20046;-83
2022/04/06 05:37:43;;;;;;;0.80;0.80;;;;;;;12.41;44.53;98233.16;4968870;28;20046;-83
2022/04/06 05:40:12;;;;;;;1.75;0.90;;;;;;;13.20;43.74;98194.06;4969827;28;20092;-82
2022/04/06 05:42:38;;;;;;;1.35;0.75;;;;;;;13.01;40.66;98237.59;4989239;28;20050;-82
2022/04/06 05:45:13;;;;;;;1.73;1.08;;;;;;;13.24;39.69;98234.81;4972875;28;20082;-83
2022/04/06 05:47:39;;;;;;;0.80;0.70;;;;;;;14.04;38.96;98190.22;4966723;28;20034;-83
2022/04/06 05:50:08;;;;;;;1.73;0.80;;;;;;;14.87;37.55;98172.13;4955620;28;20464;-84
2022/04/06 05:52:34;;;;;;;1.35;0.98;;;;;;;15.58;36.23;98234.81;4971694;28;20268;-81
2022/04/06 05:55:00;;;;;;;3.33;1.00;;;;;;;15.25;35.33;98194.59;4979613;28;20062;-84
2022/04/06 05:57:36;;;;;;;3.65;0.90;;;;;;;15.89;34.97;98201.69;4959197;28;20042;-83
2022/04/06 06:00:06;;;;;;;0.98;0.88;;;;;;;16.93;31.38;98216.69;4955749;28;20046;-83
2022/04/06 06:03:35;;;;;;;1.25;1.00;;;;;;;16.69;32.75;98211.97;4962633;28;20044;-84
2022/04/06 06:06:07;;;;;;;1.20;0.70;;;;;;;15.10;31.40;98204.13;4984923;28;20129;-83
2022/04/06 06:08:33;;;;;;;1.48;0.70;;;;;;;15.17;31.95;98194.16;4972964;28;20072;-82
2022/04/06 06:10:59;;;;;;;0.88;0.70;;;;;;;13.91;31.50;98260.56;4990115;28;20141;-82
2022/04/06 06:13:25;;;;;;;1.40;0.80;;;;;;;15.32;31.40;98287.69;4955256;28;20722;-84
2022/04/06 06:15:54;;;;;;;1.30;1.05;;;;;;;16.54;29.30;98256.56;4989828;28;20046;-81
2022/04/06 06:18:20;;;;;;;3.78;1.38;;;;;;;18.20;28.32;98270.22;4956053;28;20081;-82
2022/04/06 06:20:47;;;;;;;1.55;1.15;;;;;;;18.97;26.15;98237.13;4961054;28;20462;-82
2022/04/06 06:23:16;;;;;;;3.30;0.90;;;;;;;20.01;24.69;98256.28;4971469;28;20115;-83
2022/04/06 06:25:42;;;;;;;2.00;1.30;;;;;;;20.17;24.40;98285.06;4961738;28;20038;-82
2022/04/06 06:28:09;;;;;;;1.10;0.88;;;;;;;19.06;24.43;98251.47;4966470;28;20561;-82
2022/04/06 06:30:47;;;;;;;3.25;1.40;;;;;;;19.59;24.10;98259.22;4992697;28;20038;-82
2022/04/06 06:33:13;;;;;;;2.80;1.80;;;;;;;20.46;22.78;98311.97;5003922;28;20070;-83
2022/04/06 06:36:20;;;;;;;2.67;1.50;;;;;;;20.34;23.04;98214.31;4987882;28;20041;-83
2022/04/06 06:38:46;;;;;;;3.60;1.30;;;;;;;21.65;22.02;98315.47;5002815;28;20426;-84
2022/04/06 06:41:15;;;;;;;2.05;1.17;;;;;;;20.21;21.98;98298.88;4978428;28;20065;-83
2022/04/06 06:44:15;;;;;;;1.92;1.10;;;;;;;19.00;22.69;98330.97;4966872;28;20038;-84
2022/04/06 06:47:18;;;;;;;2.58;1.20;;;;;;;19.25;21.70;98258.94;4991120;28;20125;-83
2022/04/06 06:50:26;;;;;;;3.85;1.98;;;;;;;20.94;21.52;98336.72;4976123;28;20053;-85
2022/04/06 06:57:03;;;;;;;;;;;;;;;;;;;;;
2022/04/06 07:00:05;;;;;;;3.25;0.85;;;;;;;23.20;19.00;98217.19;4996096;28;20053;-85
2022/04/06 07:02:44;;;;;;;2.55;1.52;;;;;;;23.95;18.03;98238.13;4964058;28;20064;-85
2022/04/06 07:05:11;;;;;;;2.47;1.30;;;;;;;24.67;18.38;98293.75;4981771;28;20042;-82
2022/04/06 07:07:51;;;;;;;3.25;0.90;;;;;;;25.75;17.81;98293.53;4986034;28;20052;-82
2022/04/06 07:10:38;;;;;;;3.65;1.25;;;;;;;26.51;16.67;98298.72;4994954;28;20092;-83
2022/04/06 07:13:12;;;;;;;5.07;1.70;;;;;;;27.28;16.84;98331.03;4972264;28;20057;-83
2022/04/06 07:15:44;;;;;;;2.75;1.00;;;;;;;27.89;15.88;98330.22;4986526;28;20172;-85
2022/04/06 07:18:53;;;;;;;2.15;1.00;;;;;;;28.08;15.31;98326.47;4952573;28;20054;-83
2022/04/06 07:21:20;;;;;;;4.03;1.80;;;;;;;27.57;14.67;98324.56;4975022;28;20042;-84
2022/04/06 07:23:46;;;;;;;2.60;1.38;;;;;;;26.14;15.58;98273.88;4966046;28;20042;-85
2022/04/06 07:26:19;;;;;;;1.35;0.70;;;;;;;26.51;14.90;98296.06;4986117;28;20053;-83
2022/04/06 07:28:47;;;;;;;1.63;1.08;;;;;;;25.93;14.88;98308.75;4970232;28;20062;-83
2022/04/06 07:31:16;;;;;;;2.75;1.00;;;;;;;25.09;14.62;98330.72;5004755;28;20043;-84
2022/04/06 07:33:45;;;;;;;3.15;1.15;;;;;;;25.66;15.18;98353.84;4999667;28;20038;-82
2022/04/06 07:36:49;;;;;;;1.50;0.90;;;;;;;25.94;14.99;98305.94;4966367;28;20038;-83
2022/04/06 07:39:29;;;;;;;1.88;1.00;;;;;;;26.58;14.80;98348.63;4996417;28;20046;-83
2022/04/06 07:42:28;;;;;;;1.02;0.93;;;;;;;27.10;13.38;98296.41;4980028;28;20077;-84
2022/04/06 07:45:17;;;;;;;1.13;0.88;;;;;;;26.57;14.00;98300.78;4978175;28;20033;-83
2022/04/06 07:47:49;;;;;;;2.75;0.80;;;;;;;27.14;14.04;98295.09;4993587;28;20049;-83
2022/04/06 07:50:31;;;;;;;0.82;0.70;;;;;;;27.00;13.03;98341.88;4981130;28;20037;-83
2022/04/06 07:53:09;;;;;;;1.33;0.60;;;;;;;26.59;13.45;98256.97;4982358;28;20050;-83
2022/04/06 07:55:35;;;;;;;1.13;0.75;;;;;;;27.89;12.92;98330.22;4987403;28;20037;-83
2022/04/06 07:58:06;;;;;;;2.40;0.80;;;;;;;26.75;12.77;98274.06;4985889;28;20085;-83
2022/04/06 08:01:02;;;;;;;;;;;;;;;;;;;;;
2022/04/06 08:04:07;;;;;;;3.08;1.17;;;;;;;25.92;12.97;98344.38;4990119;28;20056;-83
2022/04/06 08:07:50;;;;;;;;;;;;;;;;;;;;;
2022/04/06 08:11:22;;;;;;;4.18;1.00;;;;;;;29.13;11.97;98363.47;4984342;28;20167;-87
2022/04/06 08:13:58;;;;;;;3.17;0.90;;;;;;;29.90;11.53;98299.69;4947448;28;20046;-86
2022/04/06 08:17:05;;;;;;;2.30;0.80;;;;;;;29.96;11.61;98357.97;4968427;28;20034;-82
2022/04/06 08:19:31;;;;;;;1.45;0.70;;;;;;;29.41;11.67;98300.66;4943365;28;20142;-83
2022/04/06 08:22:01;;;;;;;6.38;1.10;;;;;;;30.32;10.87;98292.25;4971772;28;20046;-86
2022/04/06 08:24:38;;;;;;;2.47;0.90;;;;;;;30.39;10.37;98278.97;4954859;28;20039;-84
2022/04/06 08:28:10;;;;;;;2.47;1.13;;;;;;;31.54;10.74;98355.88;4977663;28;20038;-83
2022/04/06 08:30:30;;;;;;;1.25;0.95;;;;;;;30.31;10.13;98288.75;4932179;28;20229;-85
2022/04/06 08:36:18;;;;;;;4.10;0.80;;;;;;;30.38;10.48;98349.72;4934885;28;20047;-81
2022/04/06 08:38:54;;;;;;;1.25;1.00;;;;;;;30.48;10.44;98291.31;4948491;28;20050;-84
2022/04/06 08:41:45;;;;;;;1.63;0.80;;;;;;;30.32;9.88;98287.75;4946856;28;20082;-81
2022/04/06 08:44:25;;;;;;;1.55;0.77;;;;;;;28.51;10.17;98297.84;4938467;28;20042;-85
2022/04/06 08:46:55;;;;;;;4.07;0.95;;;;;;;29.00;10.23;98318.44;4962928;28;20085;-79
2022/04/06 08:49:27;;;;;;;1.25;0.88;;;;;;;29.25;9.84;98322.94;4946710;28;20047;-83
2022/04/06 08:52:01;;;;;;;1.30;0.70;;;;;;;28.80;9.98;98325.97;4932559;28;20104;-82
2022/04/06 08:54:37;;;;;;;1.50;0.90;;;;;;;28.63;9.78;98340.31;4937896;28;20093;-82
2022/04/06 08:57:07;;;;;;;1.20;0.80;;;;;;;29.07;9.64;98310.56;4949618;28;20058;-83
2022/04/06 08:59:46;;;;;;;2.13;0.80;;;;;;;28.90;9.87;98300.91;4953207;28;20042;-82
2022/04/06 09:02:24;;;;;;;1.73;1.10;;;;;;;28.49;10.06;98307.88;4970551;28;20598;-85
2022/04/06 09:04:57;;;;;;;2.67;1.10;;;;;;;29.37;10.48;98360.94;4959732;28;20047;-82
2022/04/06 09:07:45;;;;;;;4.43;0.90;;;;;;;29.71;10.01;98338.44;4971540;28;20066;-85
2022/04/06 09:10:33;;;;;;;1.45;0.80;;;;;;;29.28;10.19;98280.59;4971746;28;20192;-84
2022/04/06 09:13:25;;;;;;;1.08;1.00;;;;;;;27.99;10.52;98354.16;4963235;28;20046;-81
2022/04/06 09:15:59;;;;;;;0.90;0.90;;;;;;;27.16;10.96;98324.28;4981460;28;20517;-83
2022/04/06 09:18:36;;;;;;;0.98;0.70;;;;;;;28.64;10.80;98293.84;4954603;28;20045;-81
2022/04/06 09:21:02;;;;;;;0.70;0.70;;;;;;;29.86;9.84;98362.69;4987257;28;20502;-81
2022/04/06 09:23:30;;;;;;;1.15;0.80;;;;;;;28.49;10.45;98312.38;4993107;28;20109;-82
2022/04/06 09:26:06;;;;;;;1.88;0.65;;;;;;;28.10;10.61;98353.88;4985223;28;20108;-81
2022/04/06 09:29:01;;;;;;;1.65;0.70;;;;;;;27.82;10.01;98265.91;4959601;28;20070;-83
2022/04/06 09:31:48;;;;;;;3.08;1.08;;;;;;;28.19;10.10;98352.09;4982716;28;20043;-82
2022/04/06 09:34:32;;;;;;;1.98;1.00;;;;;;;28.02;10.51;98322.63;4942959;28;20042;-82
2022/04/06 09:37:42;;;;;;;0.85;0.65;;;;;;;27.14;10.53;98255.06;4946474;28;20061;-82
2022/04/06 09:40:15;;;;;;;2.45;0.65;;;;;;;27.54;10.32;98351.59;4991813;28;20152;-82
2022/04/06 09:42:58;;;;;;;0.68;0.63;;;;;;;26.63;10.62;98315.34;4939641;28;20064;-82
2022/04/06 09:48:56;;;;;;;;;;;;;;;;;;;;;
2022/04/06 09:51:58;;;;;;;;;;;;;;;;;;;;;
2022/04/06 09:54:31;;;;;;;2.60;0.82;;;;;;;25.90;10.70;98341.00;4968351;28;20046;-81
2022/04/06 09:57:18;;;;;;;2.90;0.90;;;;;;;25.66;10.40;98305.09;4966491;28;20062;-86
2022/04/06 09:59:47;;;;;;;2.90;0.90;;;;;;;25.97;10.50;98315.44;4971468;28;20058;-85
2022/04/06 10:02:38;;;;;;;1.02;0.80;;;;;;;26.25;10.68;98302.13;4970969;28;20050;-81
2022/04/06 10:05:05;;;;;;;1.15;0.60;;;;;;;25.78;10.93;98309.22;4967609;28;20121;-82
2022/04/06 10:07:33;;;;;;;2.15;0.80;;;;;;;25.72;10.76;98331.13;4981267;28;20031;-83
2022/04/06 10:10:03;;;;;;;3.72;0.77;;;;;;;25.26;10.66;98331.81;4952747;28;20061;-82
2022/04/06 10:12:34;;;;;;;2.63;0.80;;;;;;;24.65;11.23;98331.09;4955150;28;20053;-81
2022/04/06 10:15:01;;;;;;;1.20;0.77;;;;;;;24.62;11.06;98355.31;4968627;28;20085;-81
2022/04/06 10:17:39;;;;;;;;;;;;;;;;;;;;;
2022/04/06 10:20:35;;;;;;;1.33;0.73;;;;;;;22.41;11.70;98346.53;4993959;28;20046;-79
2022/04/06 10:23:13;;;;;;;3.58;1.00;;;;;;;22.17;11.65;98341.41;4957763;28;20050;-80
2022/04/06 10:25:55;;;;;;;1.63;0.80;;;;;;;21.20;12.56;98344.47;4967243;28;20042;-80
2022/04/06 10:28:24;;;;;;;0.70;0.70;;;;;;;21.24;13.10;98326.56;4971550;28;20049;-81
2022/04/06 10:31:12;;;;;;;1.52;1.08;;;;;;;21.91;12.68;98339.03;4978024;28;20031;-80
2022/04/06 10:33:41;;;;;;;4.50;2.08;;;;;;;22.92;11.72;98306.25;4981313;28;20200;-80
2022/04/06 10:36:28;;;;;;;5.80;1.40;;;;;;;23.40;11.90;98319.00;4971171;28;20560;-81
2022/04/06 10:39:07;;;;;;;1.90;0.93;;;;;;;23.82;11.58;98338.47;4964038;28;20097;-82
2022/04/06 10:42:00;;;;;;;3.90;1.02;;;;;;;23.28;11.85;98304.97;4965794;28;20046;-83
2022/04/06 10:44:38;;;;;;;2.95;0.70;;;;;;;21.43;12.15;98353.28;4970815;28;20042;-82
2022/04/06 10:47:10;;;;;;;0.70;0.70;;;;;;;17.96;13.62;98269.13;4983180;28;20044;-81
2022/04/06 10:50:02;;;;;;;0.70;0.60;;;;;;;15.79;14.40;98311.44;4962706;28;20050;-80
2022/04/06 10:52:37;;;;;;;0.98;0.80;;;;;;;13.69;15.81;98219.72;4985604;28;20043;-84
2022/04/06 10:55:23;;;;;;;1.63;0.73;;;;;;;13.60;16.69;98369.16;4961183;28;20076;-80
2022/04/06 10:58:03;;;;;;;2.05;0.90;;;;;;;13.01;17.20;98360.31;4970220;28;20476;-80
2022/04/06 11:00:39;;;;;;;1.77;1.00;;;;;;;11.82;17.60;98308.41;4954446;28;20042;-81
2022/04/06 11:03:19;;;;;;;4.32;1.45;;;;;;;11.63;18.06;98361.22;4972141;28;20050;-82
2022/04/06 11:05:52;;;;;;;2.47;1.75;;;;;;;11.13;18.26;98362.09;4972776;28;20057;-80
2022/04/06 11:12:13;;;;;;;0.82;0.60;;;;;;;9.78;19.58;98358.47;4971260;28;20747;-78
2022/04/06 11:15:06;;;;;;;3.38;0.80;;;;;;;9.43;19.56;98342.09;4971216;28;20038;-80
2022/04/06 11:17:46;;;;;;;2.30;0.98;;;;;;;9.10;19.79;98288.47;4965113;28;20046;-80
2022/04/06 11:20:38;;;;;;;2.35;0.70;;;;;;;9.32;19.91;98311.25;4983771;28;20058;-82
2022/04/06 11:23:45;;;;;;;1.80;0.80;;;;;;;8.33;20.11;98208.28;4973116;28;20086;-81
2022/04/06 11:26:18;;;;;;;0.70;0.50;;;;;;;8.45;19.92;98284.91;4965136;28;20050;-78
2022/04/06 11:28:44;;;;;;;0.52;0.50;;;;;;;7.77;20.54;98219.13;4995396;28;20410;-78
2022/04/06 11:31:18;;;;;;;2.20;0.70;;;;;;;8.55;20.74;98364.22;4957284;28;20200;-79
2022/04/06 11:33:52;;;;;;;0.52;0.40;;;;;;;8.06;21.01;98293.56;4941344;28;20042;-81
2022/04/06 11:36:24;;;;;;;4.78;0.80;;;;;;;8.24;20.89;98361.44;4954756;28;20042;-81
2022/04/06 11:39:46;;;;;;;1.42;0.70;;;;;;;8.08;20.91;98366.94;4982936;28;20046;-80
2022/04/06 11:42:21;;;;;;;1.23;0.60;;;;;;;7.88;21.10;98345.78;4968541;28;20049;-80
2022/04/06 11:45:32;;;;;;;3.10;0.70;;;;;;;7.27;21.13;98260.75;4955409;28;20042;-81
2022/04/06 11:48:12;;;;;;;2.00;0.60;;;;;;;7.72;21.46;98351.28;4986117;28;20049;-79
2022/04/06 11:50:43;;;;;;;0.55;0.40;;;;;;;7.45;20.97;98326.81;4969288;28;20042;-81
2022/04/06 11:53:28;;;;;;;5.55;1.00;;;;;;;7.49;21.17;98344.84;4989081;28;20110;-79
2022/04/06 11:56:00;;;;;;;2.00;0.60;;;;;;;7.28;21.75;98302.13;4962439;28;20047;-78
2022/04/06 11:58:50;;;;;;;1.00;0.40;;;;;;;7.62;21.58;98344.59;5000600;28;20050;-79
2022/04/06 12:01:28;;;;;;;1.15;0.60;;;;;;;7.12;21.87;98257.59;4975231;28;20069;-81
2022/04/06 12:04:29;;;;;;;0.70;0.55;;;;;;;7.31;21.61;98312.38;4973557;28;20042;-80
2022/04/06 12:06:58;;;;;;;0.95;0.60;;;;;;;7.01;21.80;98260.38;4974120;28;20048;-80
2022/04/06 12:09:57;;;;;;;4.00;1.05;;;;;;;6.78;22.13;98237.53;4969797;28;20109;-81
2022/04/06 12:12:47;;;;;;;1.38;0.70;;;;;;;7.18;22.03;98310.94;4972274;28;20421;-80
2022/04/06 12:15:13;;;;;;;1.70;0.45;;;;;;;7.32;21.90;98334.81;4979637;28;20038;-79
2022/04/06 12:17:40;;;;;;;1.25;0.57;;;;;;;6.34;21.73;98183.19;4954151;28;20077;-80
2022/04/06 12:20:28;;;;;;;3.13;0.47;;;;;;;6.28;22.64;98197.06;4981120;28;20085;-80
2022/04/06 12:23:11;;;;;;;1.48;0.50;;;;;;;7.01;22.23;98337.97;4976607;28;20050;-79
2022/04/06 12:25:44;;;;;;;3.90;0.60;;;;;;;6.71;22.13;98288.50;4954952;28;20129;-78
2022/04/06 12:28:31;;;;;;;2.33;0.77;;;;;;;6.59;22.90;98244.78;4991494;28;20046;-79
2022/04/06 12:31:09;;;;;;;5.88;0.80;;;;;;;6.42;22.92;98209.72;4969268;28;20572;-79
2022/04/06 12:36:49;;;;;;;1.55;0.50;;;;;;;6.73;23.05;98247.94;4973735;28;20050;-85
2022/04/06 12:39:28;;;;;;;0.70;0.40;;;;;;;7.27;22.57;98335.78;4988373;28;20073;-81
2022/04/06 12:42:06;;;;;;;5.30;1.55;;;;;;;7.25;23.06;98341.00;4978434;28;20057;-81
2022/04/06 12:45:58;;;;;;;4.25;0.93;;;;;;;6.55;22.89;98199.19;4967838;28;20042;-79